createdAt,value
2018-12-16T00:01:41.497Z,0.70
2018-12-16T00:04:17.517Z,0.70
2018-12-16T00:06:53.610Z,0.80
2018-12-16T00:09:27.646Z,1.00
2018-12-16T00:12:02.038Z,1.10
2018-12-16T00:14:37.117Z,1.10
2018-12-16T00:17:11.124Z,1.20
2018-12-16T00:19:45.206Z,1.10
2018-12-16T00:22:19.664Z,1.10
2018-12-16T00:24:53.990Z,1.20
2018-12-16T00:27:28.103Z,1.30
2018-12-16T00:30:02.141Z,1.30
2018-12-16T00:32:37.336Z,1.30
2018-12-16T00:35:11.676Z,1.20
2018-12-16T00:37:45.698Z,1.20
2018-12-16T00:40:19.796Z,1.20
2018-12-16T00:42:53.848Z,1.30
2018-12-16T00:45:27.959Z,1.20
2018-12-16T00:48:01.966Z,1.30
2018-12-16T00:50:36.019Z,1.40
2018-12-16T00:53:11.206Z,1.40
2018-12-16T00:55:45.233Z,1.40
2018-12-16T00:58:19.238Z,1.50
2018-12-16T01:00:53.265Z,1.50
2018-12-16T01:03:27.282Z,1.50
2018-12-16T01:06:01.481Z,1.60
2018-12-16T01:08:35.521Z,1.60
2018-12-16T01:11:09.684Z,1.60
2018-12-16T01:13:43.672Z,1.60
2018-12-16T01:16:17.702Z,1.60
2018-12-16T01:18:51.709Z,1.60
2018-12-16T01:21:25.746Z,1.60
2018-12-16T01:23:59.790Z,1.60
2018-12-16T01:26:33.826Z,1.60
2018-12-16T01:29:07.819Z,1.60
2018-12-16T01:31:41.841Z,1.70
2018-12-16T01:34:15.909Z,1.60
2018-12-16T01:36:50.301Z,1.60
2018-12-16T01:39:24.319Z,1.60
2018-12-16T01:41:58.347Z,1.60
2018-12-16T01:44:32.377Z,1.70
2018-12-16T01:47:06.426Z,1.70
2018-12-16T01:49:40.570Z,1.70
2018-12-16T01:52:14.575Z,1.60
2018-12-16T01:54:48.638Z,1.60
2018-12-16T01:57:22.724Z,1.60
2018-12-16T02:00:03.526Z,1.50
2018-12-16T02:02:38.539Z,1.40
2018-12-16T02:05:12.707Z,1.30
2018-12-16T02:07:46.722Z,1.20
2018-12-16T02:10:20.798Z,1.10
2018-12-16T02:12:56.011Z,0.90
2018-12-16T02:15:30.046Z,0.80
2018-12-16T02:18:04.111Z,0.70
2018-12-16T02:20:38.142Z,0.70
2018-12-16T02:23:12.147Z,0.70
2018-12-16T02:25:46.236Z,0.60
2018-12-16T02:28:20.234Z,0.40
2018-12-16T02:30:54.349Z,0.40
2018-12-16T02:33:28.383Z,0.30
2018-12-16T02:36:02.421Z,0.20
2018-12-16T02:38:36.455Z,0.10
2018-12-16T02:41:10.578Z,0.00
2018-12-16T02:43:44.802Z,-0.20
2018-12-16T02:46:18.830Z,-0.10
2018-12-16T02:48:52.878Z,-0.10
2018-12-16T02:51:27.506Z,-0.10
2018-12-16T02:54:01.509Z,-0.10
2018-12-16T02:56:35.666Z,-0.20
2018-12-16T02:59:09.679Z,-0.20
2018-12-16T03:01:48.090Z,-0.10
2018-12-16T03:04:22.220Z,0.00
2018-12-16T03:06:56.228Z,0.10
2018-12-16T03:09:30.235Z,0.00
2018-12-16T03:12:04.440Z,0.10
2018-12-16T03:14:38.516Z,0.20
2018-12-16T03:17:12.631Z,0.30
2018-12-16T03:19:46.624Z,0.40
2018-12-16T03:22:20.633Z,0.50
2018-12-16T03:24:54.669Z,0.60
2018-12-16T03:27:28.676Z,0.40
2018-12-16T03:30:03.410Z,0.50
2018-12-16T03:32:37.589Z,0.60
2018-12-16T03:35:11.691Z,0.60
2018-12-16T03:37:45.734Z,0.60
2018-12-16T03:40:19.798Z,0.60
2018-12-16T03:42:54.002Z,0.70
2018-12-16T03:45:28.041Z,0.70
2018-12-16T03:48:02.078Z,0.70
2018-12-16T03:50:36.168Z,0.60
2018-12-16T03:53:10.199Z,0.60
2018-12-16T03:55:44.260Z,0.60
2018-12-16T03:58:18.297Z,0.60
2018-12-16T04:00:52.366Z,0.60
2018-12-16T04:03:26.421Z,0.70
2018-12-16T04:06:00.443Z,0.70
2018-12-16T04:08:34.632Z,0.70
2018-12-16T04:11:08.643Z,0.80
2018-12-16T04:13:42.765Z,0.80
2018-12-16T04:16:18.778Z,0.80
2018-12-16T04:18:52.815Z,0.80
2018-12-16T04:21:26.917Z,0.80
2018-12-16T04:24:00.965Z,0.80
2018-12-16T04:26:35.017Z,0.80
2018-12-16T04:29:09.089Z,1.00
2018-12-16T04:31:43.538Z,1.00
2018-12-16T04:34:17.669Z,1.00
2018-12-16T04:36:51.731Z,1.00
2018-12-16T04:39:25.810Z,1.00
2018-12-16T04:41:59.859Z,1.00
2018-12-16T04:44:33.908Z,1.00
2018-12-16T04:47:08.061Z,0.90
2018-12-16T04:49:42.081Z,0.80
2018-12-16T04:52:16.269Z,0.80
2018-12-16T04:54:50.311Z,0.60
2018-12-16T04:57:24.354Z,0.60
2018-12-16T04:59:58.418Z,0.70
2018-12-16T05:02:32.461Z,0.70
2018-12-16T05:05:06.769Z,0.60
2018-12-16T05:07:40.829Z,0.60
2018-12-16T05:10:28.150Z,0.60
2018-12-16T05:13:02.434Z,0.80
2018-12-16T05:15:36.465Z,0.80
2018-12-16T05:18:10.570Z,0.90
2018-12-16T05:20:44.613Z,1.00
2018-12-16T05:23:19.665Z,1.00
2018-12-16T05:25:53.776Z,1.00
2018-12-16T05:28:27.829Z,1.00
2018-12-16T05:31:01.898Z,1.10
2018-12-16T05:33:35.973Z,1.00
2018-12-16T05:36:10.022Z,1.10
2018-12-16T05:38:44.113Z,1.10
2018-12-16T05:41:18.150Z,1.20
2018-12-16T05:43:52.274Z,1.10
2018-12-16T05:46:26.312Z,1.10
2018-12-16T05:49:00.359Z,1.10
2018-12-16T05:51:35.488Z,1.10
2018-12-16T05:54:09.578Z,1.00
2018-12-16T05:56:43.706Z,1.10
2018-12-16T05:59:17.780Z,1.10
2018-12-16T06:01:51.841Z,1.20
2018-12-16T06:04:25.934Z,1.20
2018-12-16T06:06:59.950Z,1.30
2018-12-16T06:09:34.102Z,1.30
2018-12-16T06:12:08.146Z,1.30
2018-12-16T06:14:42.258Z,1.30
2018-12-16T06:17:16.281Z,1.30
2018-12-16T06:19:50.341Z,1.60
2018-12-16T06:22:24.449Z,1.70
2018-12-16T06:24:58.507Z,2.00
2018-12-16T06:27:32.537Z,2.20
2018-12-16T06:30:07.297Z,2.10
2018-12-16T06:32:41.309Z,1.90
2018-12-16T06:35:15.455Z,1.80
2018-12-16T06:37:49.488Z,1.70
2018-12-16T06:40:23.566Z,1.60
2018-12-16T06:42:57.614Z,1.60
2018-12-16T06:45:31.665Z,1.40
2018-12-16T06:48:06.494Z,1.50
2018-12-16T06:50:40.791Z,1.50
2018-12-16T06:53:14.829Z,1.60
2018-12-16T06:55:48.915Z,1.60
2018-12-16T06:58:22.955Z,1.70
2018-12-16T07:00:57.249Z,1.80
2018-12-16T07:03:31.317Z,1.80
2018-12-16T07:06:05.517Z,1.80
2018-12-16T07:08:39.553Z,1.90
2018-12-16T07:11:13.617Z,1.90
2018-12-16T07:13:47.729Z,1.90
2018-12-16T07:16:21.881Z,1.90
2018-12-16T07:18:56.019Z,1.90
2018-12-16T07:21:30.136Z,1.90
2018-12-16T07:24:09.241Z,1.90
2018-12-16T07:26:40.328Z,2.00
2018-12-16T07:29:14.374Z,2.00
2018-12-16T07:31:48.510Z,2.00
2018-12-16T07:34:22.626Z,2.00
2018-12-16T07:37:00.608Z,2.10
2018-12-16T07:39:34.677Z,2.20
2018-12-16T07:42:08.749Z,2.20
2018-12-16T07:44:42.816Z,2.20
2018-12-16T07:47:16.929Z,2.30
2018-12-16T07:49:51.128Z,2.30
2018-12-16T07:52:25.211Z,2.30
2018-12-16T07:54:59.478Z,2.40
2018-12-16T07:57:33.532Z,2.30
2018-12-16T08:00:09.689Z,2.40
2018-12-16T08:02:43.742Z,2.30
2018-12-16T08:05:17.792Z,2.20
2018-12-16T08:07:51.952Z,2.30
2018-12-16T08:10:26.035Z,2.20
2018-12-16T08:13:00.141Z,2.30
2018-12-16T08:15:34.202Z,2.30
2018-12-16T08:18:08.254Z,2.40
2018-12-16T08:20:42.406Z,2.40
2018-12-16T08:23:16.417Z,2.40
2018-12-16T08:25:50.562Z,2.40
2018-12-16T08:28:24.809Z,2.50
2018-12-16T08:30:58.873Z,2.50
2018-12-16T08:33:33.022Z,2.50
2018-12-16T08:36:07.154Z,2.50
2018-12-16T08:38:41.283Z,2.60
2018-12-16T08:41:15.313Z,2.60
2018-12-16T08:43:49.329Z,2.70
2018-12-16T08:46:23.399Z,2.70
2018-12-16T08:48:57.398Z,3.10
2018-12-16T08:51:31.551Z,3.00
2018-12-16T08:54:05.794Z,3.00
2018-12-16T08:56:39.822Z,3.00
2018-12-16T08:59:13.861Z,3.00
2018-12-16T09:01:47.900Z,3.00
2018-12-16T09:04:22.409Z,3.00
2018-12-16T09:06:56.469Z,3.00
2018-12-16T09:09:31.137Z,3.00
2018-12-16T09:12:05.637Z,3.10
2018-12-16T09:14:39.777Z,3.20
2018-12-16T09:17:13.897Z,3.20
2018-12-16T09:19:47.937Z,3.30
2018-12-16T09:22:21.973Z,3.30
2018-12-16T09:24:56.156Z,3.40
2018-12-16T09:27:30.159Z,3.40
2018-12-16T09:30:05.281Z,3.50
2018-12-16T09:32:39.305Z,3.50
2018-12-16T09:35:13.428Z,3.50
2018-12-16T09:37:47.479Z,3.50
2018-12-16T09:40:21.522Z,3.60
2018-12-16T09:42:55.643Z,3.60
2018-12-16T09:45:29.673Z,3.60
2018-12-16T09:48:03.929Z,3.60
2018-12-16T09:50:38.083Z,3.70
2018-12-16T09:53:12.117Z,3.80
2018-12-16T09:55:46.289Z,3.80
2018-12-16T09:58:20.326Z,3.80
2018-12-16T10:00:54.366Z,3.80
2018-12-16T10:03:28.424Z,3.80
2018-12-16T10:06:02.508Z,3.90
2018-12-16T10:08:36.685Z,3.90
2018-12-16T10:11:10.742Z,4.00
2018-12-16T10:13:44.871Z,4.00
2018-12-16T10:16:18.955Z,4.00
2018-12-16T10:18:52.964Z,3.90
2018-12-16T10:21:27.091Z,4.00
2018-12-16T10:24:01.533Z,4.10
2018-12-16T10:26:35.801Z,4.10
2018-12-16T10:29:09.841Z,4.10
2018-12-16T10:31:44.036Z,4.10
2018-12-16T10:34:18.421Z,4.20
2018-12-16T10:36:52.460Z,4.10
2018-12-16T10:39:26.526Z,4.20
2018-12-16T10:42:00.586Z,4.20
2018-12-16T10:44:34.689Z,4.30
2018-12-16T10:47:08.779Z,4.30
2018-12-16T10:49:42.815Z,4.30
2018-12-16T10:52:17.045Z,4.40
2018-12-16T10:54:58.140Z,4.50
2018-12-16T10:57:27.145Z,4.60
2018-12-16T11:00:01.343Z,4.50
2018-12-16T11:02:35.637Z,4.60
2018-12-16T11:05:09.887Z,4.60
2018-12-16T11:07:43.989Z,4.70
2018-12-16T11:10:18.082Z,4.70
2018-12-16T11:12:52.513Z,5.00
2018-12-16T11:15:26.596Z,5.00
2018-12-16T11:18:00.697Z,5.00
2018-12-16T11:20:34.825Z,5.10
2018-12-16T11:23:08.922Z,5.10
2018-12-16T11:25:47.462Z,5.10
2018-12-16T11:28:21.567Z,5.20
2018-12-16T11:30:55.612Z,5.30
2018-12-16T11:33:29.740Z,5.30
2018-12-16T11:36:03.921Z,5.40
2018-12-16T11:38:37.946Z,5.40
2018-12-16T11:41:12.090Z,5.40
2018-12-16T11:43:46.193Z,5.50
2018-12-16T11:46:22.314Z,5.50
2018-12-16T11:48:56.356Z,5.60
2018-12-16T11:51:30.526Z,5.70
2018-12-16T11:54:04.616Z,5.70
2018-12-16T11:56:38.682Z,5.70
2018-12-16T11:59:12.707Z,5.70
2018-12-16T12:01:50.598Z,5.80
2018-12-16T12:04:26.594Z,5.90
2018-12-16T12:07:00.654Z,5.90
2018-12-16T12:09:34.698Z,5.90
2018-12-16T12:12:08.845Z,6.00
2018-12-16T12:14:43.033Z,6.00
2018-12-16T12:17:17.061Z,6.10
2018-12-16T12:19:51.105Z,6.10
2018-12-16T12:22:25.189Z,6.10
2018-12-16T12:24:59.207Z,6.20
2018-12-16T12:27:34.378Z,6.10
2018-12-16T12:30:11.093Z,6.20
2018-12-16T12:32:49.074Z,6.30
2018-12-16T12:35:21.301Z,6.30
2018-12-16T12:37:55.437Z,6.30
2018-12-16T12:40:29.481Z,6.30
2018-12-16T12:43:03.573Z,6.40
2018-12-16T12:45:37.619Z,6.40
2018-12-16T12:48:11.682Z,6.40
2018-12-16T12:50:45.946Z,6.50
2018-12-16T12:53:21.029Z,6.40
2018-12-16T12:55:55.070Z,6.50
2018-12-16T12:58:29.123Z,6.50
2018-12-16T13:01:03.149Z,6.50
2018-12-16T13:03:38.490Z,6.50
2018-12-16T13:06:12.552Z,6.60
2018-12-16T13:08:46.601Z,6.60
2018-12-16T13:11:20.659Z,6.60
2018-12-16T13:13:54.694Z,6.70
2018-12-16T13:16:28.807Z,6.70
2018-12-16T13:19:02.833Z,6.70
2018-12-16T13:21:36.896Z,6.80
2018-12-16T13:24:12.062Z,6.80
2018-12-16T13:26:46.101Z,6.90
2018-12-16T13:29:20.293Z,6.90
2018-12-16T13:31:55.453Z,7.00
2018-12-16T13:34:29.502Z,7.00
2018-12-16T13:37:03.565Z,7.10
2018-12-16T13:39:37.584Z,7.10
2018-12-16T13:42:11.783Z,7.00
2018-12-16T13:44:45.837Z,7.10
2018-12-16T13:47:19.853Z,7.10
2018-12-16T13:49:53.866Z,7.10
2018-12-16T13:52:29.536Z,7.20
2018-12-16T13:55:04.165Z,7.20
2018-12-16T13:57:38.681Z,7.20
2018-12-16T14:00:12.974Z,7.30
2018-12-16T14:02:47.242Z,7.30
2018-12-16T14:05:21.328Z,7.30
2018-12-16T14:07:55.356Z,7.20
2018-12-16T14:10:29.383Z,7.30
2018-12-16T14:13:03.449Z,7.30
2018-12-16T14:15:37.602Z,7.30
2018-12-16T14:18:11.676Z,7.30
2018-12-16T14:20:45.814Z,7.30
2018-12-16T14:23:19.864Z,7.30
2018-12-16T14:25:53.894Z,7.40
2018-12-16T14:28:28.042Z,7.40
2018-12-16T14:31:07.099Z,7.40
2018-12-16T14:33:41.173Z,7.40
2018-12-16T14:36:15.350Z,7.30
2018-12-16T14:38:49.520Z,7.20
2018-12-16T14:41:24.701Z,6.90
2018-12-16T14:43:58.869Z,6.60
2018-12-16T14:46:36.542Z,6.60
2018-12-16T14:49:10.584Z,6.50
2018-12-16T14:51:44.674Z,6.40
2018-12-16T14:54:18.905Z,6.50
2018-12-16T14:56:52.913Z,6.50
2018-12-16T14:59:28.094Z,6.50
2018-12-16T15:02:04.400Z,6.50
2018-12-16T15:04:38.545Z,6.50
2018-12-16T15:07:18.245Z,6.60
2018-12-16T15:09:52.907Z,6.60
2018-12-16T15:12:29.235Z,6.70
2018-12-16T15:15:03.617Z,6.60
2018-12-16T15:17:42.682Z,6.60
2018-12-16T15:20:13.924Z,6.70
2018-12-16T15:22:47.988Z,6.80
2018-12-16T15:25:22.215Z,6.80
2018-12-16T15:27:56.825Z,6.80
2018-12-16T15:30:31.107Z,6.80
2018-12-16T15:33:05.175Z,6.70
2018-12-16T15:35:39.215Z,6.60
2018-12-16T15:38:14.382Z,6.50
2018-12-16T15:40:48.422Z,6.50
2018-12-16T15:43:23.573Z,6.60
2018-12-16T15:45:57.606Z,6.60
2018-12-16T15:48:31.652Z,6.60
2018-12-16T15:51:05.793Z,6.60
2018-12-16T15:53:40.290Z,6.60
2018-12-16T15:56:14.447Z,6.40
2018-12-16T15:58:50.602Z,6.40
2018-12-16T16:01:25.103Z,6.50
2018-12-16T16:04:00.396Z,6.50
2018-12-16T16:06:36.279Z,6.40
2018-12-16T16:09:11.930Z,6.30
2018-12-16T16:11:46.066Z,6.30
2018-12-16T16:14:20.186Z,6.00
2018-12-16T16:16:57.865Z,6.00
2018-12-16T16:19:31.965Z,5.90
2018-12-16T16:22:09.633Z,6.20
2018-12-16T16:24:44.069Z,6.20
2018-12-16T16:27:19.204Z,6.20
2018-12-16T16:29:53.241Z,6.20
2018-12-16T16:32:27.261Z,6.20
2018-12-16T16:35:01.313Z,6.30
2018-12-16T16:37:36.862Z,6.20
2018-12-16T16:40:10.910Z,6.20
2018-12-16T16:42:45.006Z,6.30
2018-12-16T16:45:19.042Z,6.20
2018-12-16T16:47:53.065Z,6.30
2018-12-16T16:50:27.143Z,6.40
2018-12-16T16:53:01.163Z,6.40
2018-12-16T16:55:35.197Z,6.50
2018-12-16T16:58:09.234Z,6.50
2018-12-16T17:00:43.324Z,6.50
2018-12-16T17:03:17.574Z,6.50
2018-12-16T17:05:51.636Z,6.50
2018-12-16T17:08:25.637Z,6.40
2018-12-16T17:11:01.221Z,6.50
2018-12-16T17:13:36.215Z,6.40
2018-12-16T17:16:10.277Z,6.20
2018-12-16T17:18:44.657Z,6.10
2018-12-16T17:21:18.787Z,6.10
2018-12-16T17:23:52.796Z,6.00
2018-12-16T17:26:30.064Z,5.90
2018-12-16T17:29:03.621Z,6.00
2018-12-16T17:31:38.823Z,5.90
2018-12-16T17:34:12.974Z,6.00
2018-12-16T17:36:47.065Z,5.90
2018-12-16T17:39:21.182Z,5.80
2018-12-16T17:41:55.294Z,5.40
2018-12-16T17:44:29.427Z,5.50
2018-12-16T17:47:03.460Z,5.60
2018-12-16T17:49:37.574Z,5.80
2018-12-16T17:52:12.167Z,5.80
2018-12-16T17:54:47.477Z,5.90
2018-12-16T17:57:21.843Z,6.00
2018-12-16T17:59:56.837Z,6.00
2018-12-16T18:02:31.107Z,6.00
2018-12-16T18:05:07.198Z,6.10
2018-12-16T18:07:41.302Z,6.10
2018-12-16T18:10:15.433Z,6.10
2018-12-16T18:12:50.170Z,6.00
2018-12-16T18:15:24.433Z,6.10
2018-12-16T18:17:58.715Z,5.80
2018-12-16T18:20:33.065Z,5.80
2018-12-16T18:23:07.162Z,5.70
2018-12-16T18:25:41.349Z,5.80
2018-12-16T18:28:15.663Z,5.80
2018-12-16T18:30:49.953Z,5.80
2018-12-16T18:33:24.169Z,5.90
2018-12-16T18:35:58.482Z,6.00
2018-12-16T18:38:33.041Z,6.00
2018-12-16T18:41:07.616Z,6.10
2018-12-16T18:43:41.968Z,6.10
2018-12-16T18:46:16.228Z,6.00
2018-12-16T18:48:50.493Z,6.00
2018-12-16T18:51:24.874Z,6.10
2018-12-16T18:53:59.245Z,6.10
2018-12-16T18:56:33.941Z,6.10
2018-12-16T18:59:08.399Z,6.10
2018-12-16T19:01:42.831Z,6.10
2018-12-16T19:04:19.124Z,6.00
2018-12-16T19:06:53.506Z,6.10
2018-12-16T19:09:27.785Z,6.10
2018-12-16T19:12:02.037Z,6.10
2018-12-16T19:14:36.585Z,6.10
2018-12-16T19:17:10.929Z,6.10
2018-12-16T19:19:45.053Z,6.10
2018-12-16T19:22:19.258Z,6.00
2018-12-16T19:24:53.430Z,5.90
2018-12-16T19:27:27.678Z,5.70
2018-12-16T19:30:01.968Z,5.60
2018-12-16T19:32:37.334Z,5.70
2018-12-16T19:35:11.545Z,5.80
2018-12-16T19:37:45.674Z,5.90
2018-12-16T19:40:19.865Z,5.90
2018-12-16T19:42:53.937Z,5.90
2018-12-16T19:45:27.951Z,5.90
2018-12-16T19:48:01.987Z,5.90
2018-12-16T19:50:36.073Z,6.00
2018-12-16T19:53:11.109Z,5.90
2018-12-16T19:55:45.337Z,5.90
2018-12-16T19:58:20.434Z,5.90
2018-12-16T20:00:54.503Z,5.70
2018-12-16T20:03:28.539Z,5.70
2018-12-16T20:06:08.730Z,5.70
2018-12-16T20:08:42.758Z,5.60
2018-12-16T20:11:16.813Z,5.40
2018-12-16T20:13:52.876Z,5.30
2018-12-16T20:16:27.024Z,5.10
2018-12-16T20:19:01.049Z,5.30
2018-12-16T20:21:35.159Z,5.40
2018-12-16T20:24:10.329Z,5.50
2018-12-16T20:26:44.473Z,5.50
2018-12-16T20:29:18.701Z,5.60
2018-12-16T20:31:52.876Z,5.60
2018-12-16T20:34:27.474Z,5.50
2018-12-16T20:37:01.579Z,5.40
2018-12-16T20:39:35.590Z,5.20
2018-12-16T20:42:09.859Z,4.80
2018-12-16T20:44:43.938Z,4.80
2018-12-16T20:47:17.975Z,4.80
2018-12-16T20:49:52.009Z,4.90
2018-12-16T20:52:27.122Z,4.90
2018-12-16T20:55:01.126Z,5.00
2018-12-16T20:57:35.185Z,5.00
2018-12-16T21:00:10.599Z,5.00
2018-12-16T21:02:44.681Z,5.20
2018-12-16T21:05:18.692Z,5.20
2018-12-16T21:07:52.753Z,5.30
2018-12-16T21:10:26.878Z,5.40
2018-12-16T21:13:06.477Z,5.40
2018-12-16T21:15:45.868Z,5.50
2018-12-16T21:18:23.236Z,5.50
2018-12-16T21:20:57.418Z,5.50
2018-12-16T21:23:31.453Z,5.50
2018-12-16T21:26:06.458Z,5.40
2018-12-16T21:28:40.608Z,5.40
2018-12-16T21:31:14.662Z,5.50
2018-12-16T21:33:48.742Z,5.50
2018-12-16T21:36:22.754Z,5.60
2018-12-16T21:38:56.994Z,5.60
2018-12-16T21:41:31.308Z,5.60
2018-12-16T21:44:05.356Z,5.50
2018-12-16T21:46:39.375Z,6.70
2018-12-16T21:49:13.405Z,6.90
2018-12-16T21:51:47.487Z,6.30
2018-12-16T21:54:21.540Z,6.00
2018-12-16T21:56:55.557Z,5.90
2018-12-16T21:59:29.741Z,5.80
2018-12-16T22:02:03.882Z,5.80
2018-12-16T22:04:37.903Z,5.90
2018-12-16T22:07:11.949Z,5.80
2018-12-16T22:09:45.977Z,5.70
2018-12-16T22:12:20.043Z,5.80
2018-12-16T22:14:54.053Z,5.80
2018-12-16T22:17:28.224Z,5.70
2018-12-16T22:20:02.244Z,5.60
2018-12-16T22:22:36.281Z,5.70
2018-12-16T22:25:10.297Z,5.70
2018-12-16T22:27:44.336Z,5.60
2018-12-16T22:30:18.368Z,5.70
2018-12-16T22:32:52.407Z,5.80
2018-12-16T22:35:26.449Z,5.80
2018-12-16T22:38:00.485Z,5.80
2018-12-16T22:40:34.722Z,5.90
2018-12-16T22:43:08.773Z,5.90
2018-12-16T22:45:42.795Z,5.90
2018-12-16T22:48:16.842Z,5.70
2018-12-16T22:50:50.870Z,5.80
2018-12-16T22:53:24.913Z,5.80
2018-12-16T22:55:58.940Z,5.80
2018-12-16T22:58:32.981Z,5.90
2018-12-16T23:01:12.315Z,5.80
2018-12-16T23:03:46.459Z,5.90
2018-12-16T23:06:20.480Z,5.90
2018-12-16T23:08:54.525Z,5.90
2018-12-16T23:11:29.175Z,5.80
2018-12-16T23:14:03.357Z,5.80
2018-12-16T23:16:37.381Z,5.80
2018-12-16T23:19:11.412Z,5.70
2018-12-16T23:21:45.430Z,5.60
2018-12-16T23:24:19.473Z,5.50
2018-12-16T23:26:53.577Z,5.60
2018-12-16T23:29:27.632Z,5.60
2018-12-16T23:32:01.653Z,5.70
2018-12-16T23:34:35.713Z,5.70
2018-12-16T23:37:09.729Z,5.60
2018-12-16T23:39:43.761Z,5.40
2018-12-16T23:42:17.789Z,5.30
2018-12-16T23:44:51.817Z,5.20
2018-12-16T23:47:25.833Z,5.20
2018-12-16T23:49:59.878Z,5.20
2018-12-16T23:52:34.105Z,5.30
2018-12-16T23:55:08.137Z,5.40
2018-12-16T23:57:42.146Z,5.50
